sensor_id;sensor_type;location;lat;lon;timestamp;temperature;humidity
22212;DHT22;11275;52.488;13.462;2022-09-09T00:00:15;16.90;99.90
22212;DHT22;11275;52.488;13.462;2022-09-09T00:02:50;16.90;99.90
22212;DHT22;11275;52.488;13.462;2022-09-09T00:07:59;16.90;99.90
22212;DHT22;11275;52.488;13.462;2022-09-09T00:10:32;16.90;99.90
22212;DHT22;11275;52.488;13.462;2022-09-09T00:13:16;16.90;99.90
22212;DHT22;11275;52.488;13.462;2022-09-09T00:21:11;16.90;99.90
22212;DHT22;11275;52.488;13.462;2022-09-09T00:23:40;16.90;99.90
22212;DHT22;11275;52.488;13.462;2022-09-09T00:31:23;16.80;99.90
22212;DHT22;11275;52.488;13.462;2022-09-09T00:33:51;16.70;99.90
22212;DHT22;11275;52.488;13.462;2022-09-09T00:36:20;16.70;99.90
22212;DHT22;11275;52.488;13.462;2022-09-09T00:38:55;16.60;99.90
22212;DHT22;11275;52.488;13.462;2022-09-09T00:42:10;16.50;99.90
22212;DHT22;11275;52.488;13.462;2022-09-09T00:44:32;16.50;99.90
22212;DHT22;11275;52.488;13.462;2022-09-09T00:57:35;16.50;99.90
22212;DHT22;11275;52.488;13.462;2022-09-09T01:00:33;16.50;99.90
22212;DHT22;11275;52.488;13.462;2022-09-09T01:06:13;16.40;99.90
22212;DHT22;11275;52.488;13.462;2022-09-09T01:09:14;16.30;99.90
22212;DHT22;11275;52.488;13.462;2022-09-09T01:15:09;16.20;99.90
22212;DHT22;11275;52.488;13.462;2022-09-09T01:18:04;16.20;99.90
22212;DHT22;11275;52.488;13.462;2022-09-09T01:26:09;16.20;99.90
22212;DHT22;11275;52.488;13.462;2022-09-09T01:28:37;16.20;99.90
22212;DHT22;11275;52.488;13.462;2022-09-09T01:31:06;16.10;99.90
22212;DHT22;11275;52.488;13.462;2022-09-09T01:33:33;16.10;99.90
22212;DHT22;11275;52.488;13.462;2022-09-09T01:39:05;16.10;99.90
22212;DHT22;11275;52.488;13.462;2022-09-09T01:41:30;16.10;99.90
22212;DHT22;11275;52.488;13.462;2022-09-09T01:43:56;16.10;99.90
22212;DHT22;11275;52.488;13.462;2022-09-09T01:46:23;16.00;99.90
22212;DHT22;11275;52.488;13.462;2022-09-09T01:48:51;16.00;99.90
22212;DHT22;11275;52.488;13.462;2022-09-09T01:51:18;15.80;99.90
22212;DHT22;11275;52.488;13.462;2022-09-09T01:53:43;15.80;99.90
22212;DHT22;11275;52.488;13.462;2022-09-09T02:04:40;15.70;99.90
22212;DHT22;11275;52.488;13.462;2022-09-09T02:07:27;15.70;99.90
22212;DHT22;11275;52.488;13.462;2022-09-09T02:10:11;15.60;99.90
22212;DHT22;11275;52.488;13.462;2022-09-09T02:12:44;15.60;99.90
22212;DHT22;11275;52.488;13.462;2022-09-09T02:15:23;15.70;99.90
22212;DHT22;11275;52.488;13.462;2022-09-09T02:17:50;15.70;99.90
22212;DHT22;11275;52.488;13.462;2022-09-09T02:20:18;15.60;99.90
22212;DHT22;11275;52.488;13.462;2022-09-09T02:22:46;15.60;99.90
22212;DHT22;11275;52.488;13.462;2022-09-09T02:25:17;15.60;99.90
22212;DHT22;11275;52.488;13.462;2022-09-09T02:27:45;15.60;99.90
22212;DHT22;11275;52.488;13.462;2022-09-09T02:30:12;15.60;99.90
22212;DHT22;11275;52.488;13.462;2022-09-09T02:32:39;15.50;99.90
22212;DHT22;11275;52.488;13.462;2022-09-09T02:35:09;15.40;99.90
22212;DHT22;11275;52.488;13.462;2022-09-09T02:37:38;15.40;99.90
22212;DHT22;11275;52.488;13.462;2022-09-09T02:40:06;15.30;99.90
22212;DHT22;11275;52.488;13.462;2022-09-09T02:42:38;15.40;99.90
22212;DHT22;11275;52.488;13.462;2022-09-09T02:45:04;15.40;99.90
22212;DHT22;11275;52.488;13.462;2022-09-09T02:47:31;15.40;99.90
22212;DHT22;11275;52.488;13.462;2022-09-09T02:52:56;15.40;99.90
22212;DHT22;11275;52.488;13.462;2022-09-09T02:56:08;15.40;99.90
22212;DHT22;11275;52.488;13.462;2022-09-09T02:58:26;15.30;99.90
22212;DHT22;11275;52.488;13.462;2022-09-09T03:00:52;15.30;99.90
22212;DHT22;11275;52.488;13.462;2022-09-09T03:03:19;15.40;99.90
22212;DHT22;11275;52.488;13.462;2022-09-09T03:05:45;15.40;99.90
22212;DHT22;11275;52.488;13.462;2022-09-09T03:08:12;15.50;99.90
22212;DHT22;11275;52.488;13.462;2022-09-09T03:10:38;15.50;99.90
22212;DHT22;11275;52.488;13.462;2022-09-09T03:13:04;15.60;99.90
22212;DHT22;11275;52.488;13.462;2022-09-09T03:15:31;15.60;99.90
22212;DHT22;11275;52.488;13.462;2022-09-09T03:17:58;15.60;99.90
22212;DHT22;11275;52.488;13.462;2022-09-09T03:20:25;15.70;99.90
22212;DHT22;11275;52.488;13.462;2022-09-09T03:22:52;15.70;99.90
22212;DHT22;11275;52.488;13.462;2022-09-09T03:25:17;15.60;99.90
22212;DHT22;11275;52.488;13.462;2022-09-09T03:27:43;15.70;99.90
22212;DHT22;11275;52.488;13.462;2022-09-09T03:30:09;15.70;99.90
22212;DHT22;11275;52.488;13.462;2022-09-09T03:32:35;15.60;99.90
22212;DHT22;11275;52.488;13.462;2022-09-09T03:35:00;15.70;99.90
22212;DHT22;11275;52.488;13.462;2022-09-09T03:37:26;15.60;99.90
22212;DHT22;11275;52.488;13.462;2022-09-09T03:39:52;15.60;99.90
22212;DHT22;11275;52.488;13.462;2022-09-09T03:42:19;15.60;99.90
22212;DHT22;11275;52.488;13.462;2022-09-09T03:44:46;15.60;99.90
22212;DHT22;11275;52.488;13.462;2022-09-09T03:47:24;15.60;99.90
22212;DHT22;11275;52.488;13.462;2022-09-09T03:49:50;15.60;99.90
22212;DHT22;11275;52.488;13.462;2022-09-09T03:52:15;15.60;99.90
22212;DHT22;11275;52.488;13.462;2022-09-09T03:54:41;15.50;99.90
22212;DHT22;11275;52.488;13.462;2022-09-09T03:57:08;15.60;99.90
22212;DHT22;11275;52.488;13.462;2022-09-09T03:59:34;15.50;99.90
22212;DHT22;11275;52.488;13.462;2022-09-09T04:02:00;15.50;99.90
22212;DHT22;11275;52.488;13.462;2022-09-09T04:04:26;15.50;99.90
22212;DHT22;11275;52.488;13.462;2022-09-09T04:06:52;15.50;99.90
22212;DHT22;11275;52.488;13.462;2022-09-09T04:09:18;15.40;99.90
22212;DHT22;11275;52.488;13.462;2022-09-09T04:11:44;15.40;99.90
22212;DHT22;11275;52.488;13.462;2022-09-09T04:14:11;15.30;99.90
22212;DHT22;11275;52.488;13.462;2022-09-09T04:16:36;15.20;99.90
22212;DHT22;11275;52.488;13.462;2022-09-09T04:19:03;15.20;99.90
22212;DHT22;11275;52.488;13.462;2022-09-09T04:21:35;15.30;99.90
22212;DHT22;11275;52.488;13.462;2022-09-09T04:24:01;15.20;99.90
22212;DHT22;11275;52.488;13.462;2022-09-09T04:26:27;15.20;99.90
22212;DHT22;11275;52.488;13.462;2022-09-09T04:28:53;15.20;99.90
22212;DHT22;11275;52.488;13.462;2022-09-09T04:31:22;15.20;99.90
22212;DHT22;11275;52.488;13.462;2022-09-09T04:33:52;15.30;99.90
22212;DHT22;11275;52.488;13.462;2022-09-09T04:36:18;15.30;99.90
22212;DHT22;11275;52.488;13.462;2022-09-09T04:38:47;15.30;99.90
22212;DHT22;11275;52.488;13.462;2022-09-09T04:41:14;15.20;99.90
22212;DHT22;11275;52.488;13.462;2022-09-09T04:43:41;15.20;99.90
22212;DHT22;11275;52.488;13.462;2022-09-09T04:46:07;15.20;99.90
22212;DHT22;11275;52.488;13.462;2022-09-09T04:48:33;15.20;99.90
22212;DHT22;11275;52.488;13.462;2022-09-09T04:51:06;15.10;99.90
22212;DHT22;11275;52.488;13.462;2022-09-09T04:53:34;15.10;99.90
22212;DHT22;11275;52.488;13.462;2022-09-09T04:56:13;15.20;99.90
22212;DHT22;11275;52.488;13.462;2022-09-09T04:58:39;15.20;99.90
22212;DHT22;11275;52.488;13.462;2022-09-09T05:01:21;15.30;99.90
22212;DHT22;11275;52.488;13.462;2022-09-09T05:03:47;15.30;99.90
22212;DHT22;11275;52.488;13.462;2022-09-09T05:06:15;15.30;99.90
22212;DHT22;11275;52.488;13.462;2022-09-09T05:08:42;15.30;99.90
22212;DHT22;11275;52.488;13.462;2022-09-09T05:11:19;15.30;99.90
22212;DHT22;11275;52.488;13.462;2022-09-09T05:13:46;15.20;99.90
22212;DHT22;11275;52.488;13.462;2022-09-09T05:16:12;15.20;99.90
22212;DHT22;11275;52.488;13.462;2022-09-09T05:18:39;15.30;99.90
22212;DHT22;11275;52.488;13.462;2022-09-09T05:21:05;15.30;99.90
22212;DHT22;11275;52.488;13.462;2022-09-09T05:23:32;15.30;99.90
22212;DHT22;11275;52.488;13.462;2022-09-09T05:25:59;15.40;99.90
22212;DHT22;11275;52.488;13.462;2022-09-09T05:28:26;15.40;99.90
22212;DHT22;11275;52.488;13.462;2022-09-09T05:30:58;15.40;99.90
22212;DHT22;11275;52.488;13.462;2022-09-09T05:33:26;15.40;99.90
22212;DHT22;11275;52.488;13.462;2022-09-09T05:35:56;15.40;99.90
22212;DHT22;11275;52.488;13.462;2022-09-09T05:38:22;15.50;99.90
22212;DHT22;11275;52.488;13.462;2022-09-09T05:40:51;15.40;99.90
22212;DHT22;11275;52.488;13.462;2022-09-09T05:43:18;15.50;99.90
22212;DHT22;11275;52.488;13.462;2022-09-09T05:45:45;15.50;99.90
22212;DHT22;11275;52.488;13.462;2022-09-09T05:48:13;15.50;99.90
22212;DHT22;11275;52.488;13.462;2022-09-09T05:50:40;15.50;99.90
22212;DHT22;11275;52.488;13.462;2022-09-09T05:53:06;15.60;99.90
22212;DHT22;11275;52.488;13.462;2022-09-09T05:55:34;15.60;99.90
22212;DHT22;11275;52.488;13.462;2022-09-09T05:58:00;15.60;99.90
22212;DHT22;11275;52.488;13.462;2022-09-09T06:00:26;15.70;99.90
22212;DHT22;11275;52.488;13.462;2022-09-09T06:02:52;15.70;99.90
22212;DHT22;11275;52.488;13.462;2022-09-09T06:05:19;15.80;99.90
22212;DHT22;11275;52.488;13.462;2022-09-09T06:07:45;15.90;99.90
22212;DHT22;11275;52.488;13.462;2022-09-09T06:10:11;15.90;99.90
22212;DHT22;11275;52.488;13.462;2022-09-09T06:12:39;15.90;99.90
22212;DHT22;11275;52.488;13.462;2022-09-09T06:15:05;15.90;99.90
22212;DHT22;11275;52.488;13.462;2022-09-09T06:17:31;16.00;99.90
22212;DHT22;11275;52.488;13.462;2022-09-09T06:19:56;16.10;99.90
22212;DHT22;11275;52.488;13.462;2022-09-09T06:22:22;16.10;99.90
22212;DHT22;11275;52.488;13.462;2022-09-09T06:24:48;16.20;99.90
22212;DHT22;11275;52.488;13.462;2022-09-09T06:27:13;16.10;99.90
22212;DHT22;11275;52.488;13.462;2022-09-09T06:29:39;16.20;99.90
22212;DHT22;11275;52.488;13.462;2022-09-09T06:32:05;16.20;99.90
22212;DHT22;11275;52.488;13.462;2022-09-09T06:34:30;16.20;99.90
22212;DHT22;11275;52.488;13.462;2022-09-09T06:36:56;16.20;99.90
22212;DHT22;11275;52.488;13.462;2022-09-09T06:39:23;16.30;99.90
22212;DHT22;11275;52.488;13.462;2022-09-09T06:41:49;16.40;99.90
22212;DHT22;11275;52.488;13.462;2022-09-09T06:44:18;16.40;99.90
22212;DHT22;11275;52.488;13.462;2022-09-09T06:46:44;16.40;99.90
22212;DHT22;11275;52.488;13.462;2022-09-09T06:49:13;16.40;99.90
22212;DHT22;11275;52.488;13.462;2022-09-09T06:51:39;16.60;99.90
22212;DHT22;11275;52.488;13.462;2022-09-09T06:54:12;16.70;99.90
22212;DHT22;11275;52.488;13.462;2022-09-09T06:56:40;16.70;99.90
22212;DHT22;11275;52.488;13.462;2022-09-09T06:59:08;16.80;99.90
22212;DHT22;11275;52.488;13.462;2022-09-09T07:01:39;16.90;99.90
22212;DHT22;11275;52.488;13.462;2022-09-09T07:04:23;16.90;99.90
22212;DHT22;11275;52.488;13.462;2022-09-09T07:06:48;17.00;99.90
22212;DHT22;11275;52.488;13.462;2022-09-09T07:09:17;17.00;99.90
22212;DHT22;11275;52.488;13.462;2022-09-09T07:11:48;17.00;99.90
22212;DHT22;11275;52.488;13.462;2022-09-09T07:14:17;17.10;99.90
22212;DHT22;11275;52.488;13.462;2022-09-09T07:16:49;17.20;99.90
22212;DHT22;11275;52.488;13.462;2022-09-09T07:19:17;17.30;99.90
22212;DHT22;11275;52.488;13.462;2022-09-09T07:21:45;17.40;99.90
22212;DHT22;11275;52.488;13.462;2022-09-09T07:24:11;17.40;99.90
22212;DHT22;11275;52.488;13.462;2022-09-09T07:26:38;17.50;99.90
22212;DHT22;11275;52.488;13.462;2022-09-09T07:29:04;17.50;99.90
22212;DHT22;11275;52.488;13.462;2022-09-09T07:31:32;17.50;99.90
22212;DHT22;11275;52.488;13.462;2022-09-09T07:33:59;17.50;99.90
22212;DHT22;11275;52.488;13.462;2022-09-09T07:36:27;17.50;99.90
22212;DHT22;11275;52.488;13.462;2022-09-09T07:38:59;17.60;99.90
22212;DHT22;11275;52.488;13.462;2022-09-09T07:41:34;17.70;99.90
22212;DHT22;11275;52.488;13.462;2022-09-09T07:44:21;17.70;99.90
22212;DHT22;11275;52.488;13.462;2022-09-09T07:46:48;17.80;99.90
22212;DHT22;11275;52.488;13.462;2022-09-09T07:49:14;17.90;99.90
22212;DHT22;11275;52.488;13.462;2022-09-09T07:51:42;17.90;99.90
22212;DHT22;11275;52.488;13.462;2022-09-09T07:54:10;18.10;99.90
22212;DHT22;11275;52.488;13.462;2022-09-09T07:56:37;18.20;99.90
22212;DHT22;11275;52.488;13.462;2022-09-09T07:59:03;18.30;99.90
22212;DHT22;11275;52.488;13.462;2022-09-09T08:01:36;18.40;99.90
22212;DHT22;11275;52.488;13.462;2022-09-09T08:04:07;18.50;99.90
22212;DHT22;11275;52.488;13.462;2022-09-09T08:06:39;18.50;99.90
22212;DHT22;11275;52.488;13.462;2022-09-09T08:09:05;18.50;99.90
22212;DHT22;11275;52.488;13.462;2022-09-09T08:11:31;18.50;99.90
22212;DHT22;11275;52.488;13.462;2022-09-09T08:13:58;18.60;99.90
22212;DHT22;11275;52.488;13.462;2022-09-09T08:16:27;18.60;99.90
22212;DHT22;11275;52.488;13.462;2022-09-09T08:18:53;18.60;99.90
22212;DHT22;11275;52.488;13.462;2022-09-09T08:21:27;18.50;99.90
22212;DHT22;11275;52.488;13.462;2022-09-09T08:23:54;18.50;99.90
22212;DHT22;11275;52.488;13.462;2022-09-09T08:26:24;18.50;99.90
22212;DHT22;11275;52.488;13.462;2022-09-09T08:28:52;18.40;99.90
22212;DHT22;11275;52.488;13.462;2022-09-09T08:33:48;18.40;99.90
22212;DHT22;11275;52.488;13.462;2022-09-09T08:36:16;18.40;99.90
22212;DHT22;11275;52.488;13.462;2022-09-09T08:38:43;18.50;99.90
22212;DHT22;11275;52.488;13.462;2022-09-09T08:44:14;18.50;99.90
22212;DHT22;11275;52.488;13.462;2022-09-09T08:52:16;18.60;99.90
22212;DHT22;11275;52.488;13.462;2022-09-09T08:54:49;18.60;99.90
22212;DHT22;11275;52.488;13.462;2022-09-09T08:57:23;18.70;99.90
22212;DHT22;11275;52.488;13.462;2022-09-09T08:59:55;18.80;99.90
22212;DHT22;11275;52.488;13.462;2022-09-09T09:02:39;18.90;99.90
22212;DHT22;11275;52.488;13.462;2022-09-09T09:05:28;19.00;99.90
22212;DHT22;11275;52.488;13.462;2022-09-09T09:08:12;19.10;99.90
22212;DHT22;11275;52.488;13.462;2022-09-09T09:10:47;19.30;99.90
22212;DHT22;11275;52.488;13.462;2022-09-09T09:19:00;19.90;99.90
22212;DHT22;11275;52.488;13.462;2022-09-09T09:21:39;20.00;99.90
22212;DHT22;11275;52.488;13.462;2022-09-09T09:24:20;20.20;99.90
22212;DHT22;11275;52.488;13.462;2022-09-09T09:26:48;20.30;99.90
22212;DHT22;11275;52.488;13.462;2022-09-09T09:29:17;20.40;99.90
22212;DHT22;11275;52.488;13.462;2022-09-09T09:31:55;20.50;99.90
22212;DHT22;11275;52.488;13.462;2022-09-09T09:34:22;20.60;99.90
22212;DHT22;11275;52.488;13.462;2022-09-09T09:36:54;20.60;99.90
22212;DHT22;11275;52.488;13.462;2022-09-09T09:39:30;20.50;99.90
22212;DHT22;11275;52.488;13.462;2022-09-09T09:41:55;20.50;99.90
22212;DHT22;11275;52.488;13.462;2022-09-09T09:44:30;20.40;99.90
22212;DHT22;11275;52.488;13.462;2022-09-09T09:47:08;20.30;99.90
22212;DHT22;11275;52.488;13.462;2022-09-09T09:49:34;20.30;99.90
22212;DHT22;11275;52.488;13.462;2022-09-09T09:52:04;20.30;99.90
22212;DHT22;11275;52.488;13.462;2022-09-09T09:54:38;20.20;99.90
22212;DHT22;11275;52.488;13.462;2022-09-09T09:57:18;20.20;99.90
22212;DHT22;11275;52.488;13.462;2022-09-09T09:59:44;20.10;99.90
22212;DHT22;11275;52.488;13.462;2022-09-09T10:02:18;20.10;99.90
22212;DHT22;11275;52.488;13.462;2022-09-09T10:04:45;20.10;99.90
22212;DHT22;11275;52.488;13.462;2022-09-09T10:07:21;20.20;99.90
22212;DHT22;11275;52.488;13.462;2022-09-09T10:09:54;20.30;99.90
22212;DHT22;11275;52.488;13.462;2022-09-09T10:12:48;20.20;99.90
22212;DHT22;11275;52.488;13.462;2022-09-09T10:15:32;20.20;99.90
22212;DHT22;11275;52.488;13.462;2022-09-09T10:21:17;20.20;99.90
22212;DHT22;11275;52.488;13.462;2022-09-09T10:37:49;20.40;99.90
22212;DHT22;11275;52.488;13.462;2022-09-09T10:40:38;20.50;99.90
22212;DHT22;11275;52.488;13.462;2022-09-09T10:43:39;20.50;99.90
22212;DHT22;11275;52.488;13.462;2022-09-09T10:59:53;20.80;99.90
22212;DHT22;11275;52.488;13.462;2022-09-09T11:02:29;20.90;99.90
22212;DHT22;11275;52.488;13.462;2022-09-09T11:04:57;21.00;99.90
22212;DHT22;11275;52.488;13.462;2022-09-09T11:07:54;21.20;99.90
22212;DHT22;11275;52.488;13.462;2022-09-09T11:10:39;21.20;99.90
22212;DHT22;11275;52.488;13.462;2022-09-09T11:13:15;21.30;99.90
22212;DHT22;11275;52.488;13.462;2022-09-09T11:15:53;21.20;99.90
22212;DHT22;11275;52.488;13.462;2022-09-09T11:18:21;21.20;99.90
22212;DHT22;11275;52.488;13.462;2022-09-09T11:23:29;21.50;99.90
22212;DHT22;11275;52.488;13.462;2022-09-09T11:26:05;21.60;99.90
22212;DHT22;11275;52.488;13.462;2022-09-09T11:42:30;22.70;99.90
22212;DHT22;11275;52.488;13.462;2022-09-09T11:44:56;22.80;99.90
22212;DHT22;11275;52.488;13.462;2022-09-09T11:47:29;22.80;99.90
22212;DHT22;11275;52.488;13.462;2022-09-09T11:50:09;22.80;99.90
22212;DHT22;11275;52.488;13.462;2022-09-09T11:52:40;22.80;99.90
22212;DHT22;11275;52.488;13.462;2022-09-09T11:55:10;22.60;99.90
22212;DHT22;11275;52.488;13.462;2022-09-09T11:57:38;22.50;99.90
22212;DHT22;11275;52.488;13.462;2022-09-09T12:00:05;22.50;99.90
22212;DHT22;11275;52.488;13.462;2022-09-09T12:02:31;22.60;99.90
22212;DHT22;11275;52.488;13.462;2022-09-09T12:05:13;22.60;99.90
22212;DHT22;11275;52.488;13.462;2022-09-09T12:07:50;22.50;99.90
22212;DHT22;11275;52.488;13.462;2022-09-09T12:10:20;22.30;99.90
22212;DHT22;11275;52.488;13.462;2022-09-09T12:12:50;22.30;99.90
22212;DHT22;11275;52.488;13.462;2022-09-09T12:15:24;22.40;99.90
22212;DHT22;11275;52.488;13.462;2022-09-09T12:17:53;22.30;99.90
22212;DHT22;11275;52.488;13.462;2022-09-09T12:20:31;22.30;99.90
22212;DHT22;11275;52.488;13.462;2022-09-09T12:31:26;22.20;99.90
22212;DHT22;11275;52.488;13.462;2022-09-09T12:34:06;22.10;99.90
22212;DHT22;11275;52.488;13.462;2022-09-09T12:36:35;22.00;99.90
22212;DHT22;11275;52.488;13.462;2022-09-09T12:39:18;22.00;99.90
22212;DHT22;11275;52.488;13.462;2022-09-09T12:41:53;22.00;99.90
22212;DHT22;11275;52.488;13.462;2022-09-09T12:44:25;22.10;99.90
22212;DHT22;11275;52.488;13.462;2022-09-09T12:46:56;22.20;99.90
22212;DHT22;11275;52.488;13.462;2022-09-09T12:49:26;22.30;99.90
22212;DHT22;11275;52.488;13.462;2022-09-09T12:52:08;22.40;99.90
22212;DHT22;11275;52.488;13.462;2022-09-09T12:54:44;22.50;99.90
22212;DHT22;11275;52.488;13.462;2022-09-09T12:57:13;22.50;99.90
22212;DHT22;11275;52.488;13.462;2022-09-09T12:59:41;22.50;99.90
22212;DHT22;11275;52.488;13.462;2022-09-09T13:02:22;22.60;99.90
22212;DHT22;11275;52.488;13.462;2022-09-09T13:04:48;22.70;99.90
22212;DHT22;11275;52.488;13.462;2022-09-09T13:07:19;22.70;99.90
22212;DHT22;11275;52.488;13.462;2022-09-09T13:09:46;22.80;99.90
22212;DHT22;11275;52.488;13.462;2022-09-09T13:12:20;22.80;99.90
22212;DHT22;11275;52.488;13.462;2022-09-09T13:14:50;22.80;99.90
22212;DHT22;11275;52.488;13.462;2022-09-09T13:19:48;22.90;99.90
22212;DHT22;11275;52.488;13.462;2022-09-09T13:22:34;22.90;99.90
22212;DHT22;11275;52.488;13.462;2022-09-09T13:25:04;22.90;99.90
22212;DHT22;11275;52.488;13.462;2022-09-09T13:27:32;22.90;99.90
22212;DHT22;11275;52.488;13.462;2022-09-09T13:30:18;22.90;99.90
22212;DHT22;11275;52.488;13.462;2022-09-09T13:32:59;22.90;99.90
22212;DHT22;11275;52.488;13.462;2022-09-09T13:35:29;23.00;99.90
22212;DHT22;11275;52.488;13.462;2022-09-09T13:37:56;23.10;99.90
22212;DHT22;11275;52.488;13.462;2022-09-09T13:40:31;23.10;99.90
22212;DHT22;11275;52.488;13.462;2022-09-09T13:42:59;23.10;99.90
22212;DHT22;11275;52.488;13.462;2022-09-09T13:45:38;23.10;99.90
22212;DHT22;11275;52.488;13.462;2022-09-09T13:48:10;23.10;99.90
22212;DHT22;11275;52.488;13.462;2022-09-09T13:50:36;23.10;99.90
22212;DHT22;11275;52.488;13.462;2022-09-09T13:53:09;23.20;99.90
22212;DHT22;11275;52.488;13.462;2022-09-09T13:55:37;23.20;99.90
22212;DHT22;11275;52.488;13.462;2022-09-09T13:58:04;23.30;99.90
22212;DHT22;11275;52.488;13.462;2022-09-09T14:00:32;23.30;99.90
22212;DHT22;11275;52.488;13.462;2022-09-09T14:02:59;23.30;99.90
22212;DHT22;11275;52.488;13.462;2022-09-09T14:05:32;23.20;99.90
22212;DHT22;11275;52.488;13.462;2022-09-09T14:08:06;23.20;99.90
22212;DHT22;11275;52.488;13.462;2022-09-09T14:10:41;23.10;99.90
22212;DHT22;11275;52.488;13.462;2022-09-09T14:13:07;23.10;99.90
22212;DHT22;11275;52.488;13.462;2022-09-09T14:15:38;23.00;99.90
22212;DHT22;11275;52.488;13.462;2022-09-09T14:18:04;23.00;99.90
22212;DHT22;11275;52.488;13.462;2022-09-09T14:20:30;23.10;99.90
22212;DHT22;11275;52.488;13.462;2022-09-09T14:22:57;23.20;99.90
22212;DHT22;11275;52.488;13.462;2022-09-09T14:25:33;23.40;99.90
22212;DHT22;11275;52.488;13.462;2022-09-09T14:28:10;23.40;99.90
22212;DHT22;11275;52.488;13.462;2022-09-09T14:30:50;23.40;99.90
22212;DHT22;11275;52.488;13.462;2022-09-09T14:33:23;23.50;99.90
22212;DHT22;11275;52.488;13.462;2022-09-09T14:36:06;23.60;99.90
22212;DHT22;11275;52.488;13.462;2022-09-09T14:38:35;23.60;99.90
22212;DHT22;11275;52.488;13.462;2022-09-09T14:41:10;23.70;99.90
22212;DHT22;11275;52.488;13.462;2022-09-09T14:43:39;23.70;99.90
22212;DHT22;11275;52.488;13.462;2022-09-09T14:46:16;23.80;99.90
22212;DHT22;11275;52.488;13.462;2022-09-09T14:48:48;23.80;99.90
22212;DHT22;11275;52.488;13.462;2022-09-09T14:51:19;23.80;99.90
22212;DHT22;11275;52.488;13.462;2022-09-09T14:53:51;23.70;99.90
22212;DHT22;11275;52.488;13.462;2022-09-09T14:56:21;23.60;99.90
22212;DHT22;11275;52.488;13.462;2022-09-09T14:58:52;23.50;99.90
22212;DHT22;11275;52.488;13.462;2022-09-09T15:01:19;23.40;99.90
22212;DHT22;11275;52.488;13.462;2022-09-09T15:03:53;23.30;99.90
22212;DHT22;11275;52.488;13.462;2022-09-09T15:06:20;23.40;99.90
22212;DHT22;11275;52.488;13.462;2022-09-09T15:08:47;23.40;99.90
22212;DHT22;11275;52.488;13.462;2022-09-09T15:11:13;23.30;99.90
22212;DHT22;11275;52.488;13.462;2022-09-09T15:13:41;23.30;99.90
22212;DHT22;11275;52.488;13.462;2022-09-09T15:18:41;23.30;99.90
22212;DHT22;11275;52.488;13.462;2022-09-09T15:21:26;23.20;99.90
22212;DHT22;11275;52.488;13.462;2022-09-09T15:24:04;23.40;99.90
22212;DHT22;11275;52.488;13.462;2022-09-09T15:26:30;23.60;99.90
22212;DHT22;11275;52.488;13.462;2022-09-09T15:28:58;23.80;99.90
22212;DHT22;11275;52.488;13.462;2022-09-09T15:31:29;23.90;99.90
22212;DHT22;11275;52.488;13.462;2022-09-09T15:34:03;24.00;99.90
22212;DHT22;11275;52.488;13.462;2022-09-09T15:36:39;24.10;99.90
22212;DHT22;11275;52.488;13.462;2022-09-09T15:39:08;24.10;99.90
22212;DHT22;11275;52.488;13.462;2022-09-09T15:41:35;24.00;99.90
22212;DHT22;11275;52.488;13.462;2022-09-09T15:44:02;23.90;99.90
22212;DHT22;11275;52.488;13.462;2022-09-09T15:51:29;23.70;99.90
22212;DHT22;11275;52.488;13.462;2022-09-09T15:53:56;23.60;99.90
22212;DHT22;11275;52.488;13.462;2022-09-09T15:56:23;23.40;99.90
22212;DHT22;11275;52.488;13.462;2022-09-09T15:58:49;23.20;99.90
22212;DHT22;11275;52.488;13.462;2022-09-09T16:01:15;23.10;99.90
22212;DHT22;11275;52.488;13.462;2022-09-09T16:03:42;23.00;99.90
22212;DHT22;11275;52.488;13.462;2022-09-09T16:06:10;23.00;99.90
22212;DHT22;11275;52.488;13.462;2022-09-09T16:08:39;23.10;99.90
22212;DHT22;11275;52.488;13.462;2022-09-09T16:13:33;23.30;99.90
22212;DHT22;11275;52.488;13.462;2022-09-09T16:16:00;23.20;99.90
22212;DHT22;11275;52.488;13.462;2022-09-09T16:18:26;23.30;99.90
22212;DHT22;11275;52.488;13.462;2022-09-09T16:20:55;23.30;99.90
22212;DHT22;11275;52.488;13.462;2022-09-09T16:23:20;23.30;99.90
22212;DHT22;11275;52.488;13.462;2022-09-09T16:25:55;23.20;99.90
22212;DHT22;11275;52.488;13.462;2022-09-09T16:28:21;23.30;99.90
22212;DHT22;11275;52.488;13.462;2022-09-09T16:30:48;23.20;99.90
22212;DHT22;11275;52.488;13.462;2022-09-09T16:33:13;23.10;99.90
22212;DHT22;11275;52.488;13.462;2022-09-09T16:35:42;23.10;99.90
22212;DHT22;11275;52.488;13.462;2022-09-09T16:38:08;23.10;99.90
22212;DHT22;11275;52.488;13.462;2022-09-09T16:40:37;23.00;99.90
22212;DHT22;11275;52.488;13.462;2022-09-09T16:43:04;22.90;99.90
22212;DHT22;11275;52.488;13.462;2022-09-09T16:45:31;22.80;99.90
22212;DHT22;11275;52.488;13.462;2022-09-09T16:47:58;22.80;99.90
22212;DHT22;11275;52.488;13.462;2022-09-09T16:50:24;22.70;99.90
22212;DHT22;11275;52.488;13.462;2022-09-09T16:52:51;22.60;99.90
22212;DHT22;11275;52.488;13.462;2022-09-09T16:55:16;22.60;99.90
22212;DHT22;11275;52.488;13.462;2022-09-09T16:57:42;22.60;99.90
22212;DHT22;11275;52.488;13.462;2022-09-09T17:00:08;22.60;99.90
22212;DHT22;11275;52.488;13.462;2022-09-09T17:02:34;22.60;99.90
22212;DHT22;11275;52.488;13.462;2022-09-09T17:04:59;22.60;99.90
22212;DHT22;11275;52.488;13.462;2022-09-09T17:07:25;22.50;99.90
22212;DHT22;11275;52.488;13.462;2022-09-09T17:09:51;22.50;99.90
22212;DHT22;11275;52.488;13.462;2022-09-09T17:12:19;22.40;99.90
22212;DHT22;11275;52.488;13.462;2022-09-09T17:14:46;22.40;99.90
22212;DHT22;11275;52.488;13.462;2022-09-09T17:17:12;22.30;99.90
22212;DHT22;11275;52.488;13.462;2022-09-09T17:19:38;22.20;99.90
22212;DHT22;11275;52.488;13.462;2022-09-09T17:22:04;22.20;99.90
22212;DHT22;11275;52.488;13.462;2022-09-09T17:24:30;22.20;99.90
22212;DHT22;11275;52.488;13.462;2022-09-09T17:26:55;22.10;99.90
22212;DHT22;11275;52.488;13.462;2022-09-09T17:29:21;22.00;99.90
22212;DHT22;11275;52.488;13.462;2022-09-09T17:31:47;21.90;99.90
22212;DHT22;11275;52.488;13.462;2022-09-09T17:34:13;21.80;99.90
22212;DHT22;11275;52.488;13.462;2022-09-09T17:36:38;21.60;99.90
22212;DHT22;11275;52.488;13.462;2022-09-09T17:39:05;21.60;99.90
22212;DHT22;11275;52.488;13.462;2022-09-09T17:41:38;21.50;99.90
22212;DHT22;11275;52.488;13.462;2022-09-09T17:44:08;21.40;99.90
22212;DHT22;11275;52.488;13.462;2022-09-09T17:46:36;21.30;99.90
22212;DHT22;11275;52.488;13.462;2022-09-09T17:49:05;21.30;99.90